Terminal Aerodrome Forecast
Issued by NWS

Home | Current Version | Previous Version | Text Only | Print | Product List | Glossary On
Versions: 1 2 3 4 5 6 7 8 9 10 11 12 13 14 15 16 17
000
FTUS43 KSGF 032320
TAFBBG
TAF
KBBG 032320Z 0400/0424 32005KT P6SM SCT200
     FM041200 26008KT P6SM SKC WS020/28035KT
     FM041500 30009KT P6SM FEW250
     FM041800 32013KT P6SM FEW250=

USA.gov is the U.S. government's official web portal to all federal, state and local government web resources and services.